Time;durP1;ratioP1;P1;durP2;ratioP2;P2;SDS_P1;SDS_P2;PMS_P1;PMS_P2;Temp;Humidity;BMP_temperature;BMP_pressure;BME280_temperature;BME280_humidity;BME280_pressure;Samples;Min_cycle;Max_cycle;Signal;HPM_P1;HPM_P2
2022/05/29 00:00:21;;;;;;;;;;;;;;;27.42;34.97;93792.38;4987866;28;7076;-59
2022/05/29 00:02:51;;;;;;;;;;;;;;;27.41;34.72;93797.16;4989268;28;7126;-59
2022/05/29 00:05:30;;;;;;;;;;;;;;;27.43;34.30;93793.84;4978144;28;7258;-59
2022/05/29 00:07:59;;;;;;;;;;;;;;;27.41;34.71;93790.88;4987768;28;7349;-59
2022/05/29 00:10:27;;;;;;;;;;;;;;;27.41;34.27;93794.41;5008482;28;9145;-59
2022/05/29 00:13:04;;;;;;;;;;;;;;;27.39;34.42;93788.69;4979536;28;7231;-59
2022/05/29 00:15:47;;;;;;;;;;;;;;;27.39;34.22;93790.69;4978359;28;7223;-59
2022/05/29 00:18:19;;;;;;;;;;;;;;;27.38;35.18;93778.91;4982913;28;8026;-59
2022/05/29 00:21:00;;;;;;;;;;;;;;;27.38;34.59;93778.19;4981244;28;7016;-59
2022/05/29 00:23:29;;;;;;;;;;;;;;;27.39;34.40;93776.88;4980904;28;7198;-59
2022/05/29 00:26:11;;;;;;;;;;;;;;;27.37;34.44;93774.66;4998047;28;7140;-59
2022/05/29 00:28:59;;;;;;;;;;;;;;;27.37;34.51;93768.41;4990804;28;6932;-59
2022/05/29 00:31:31;;;;;;;;;;;;;;;27.36;34.79;93762.13;4993008;28;9279;-59
2022/05/29 00:33:59;;;;;;;;;;;;;;;27.36;34.42;93761.41;4994558;28;8223;-60
2022/05/29 00:36:31;;;;;;;;;;;;;;;27.36;34.45;93762.13;4975551;28;8667;-59
2022/05/29 00:39:00;;;;;;;;;;;;;;;27.35;34.93;93757.91;5000704;28;7043;-59
2022/05/29 00:41:31;;;;;;;;;;;;;;;27.35;34.73;93760.66;4991419;28;7159;-59
2022/05/29 00:44:25;;;;;;;;;;;;;;;27.35;34.58;93757.91;4983137;28;9128;-59
2022/05/29 00:47:11;;;;;;;;;;;;;;;27.34;34.77;93756.38;4993625;28;9344;-59
2022/05/29 00:49:47;;;;;;;;;;;;;;;27.32;34.38;93739.59;4993613;28;7253;-59
2022/05/29 00:52:19;;;;;;;;;;;;;;;27.33;34.36;93741.09;5018729;28;8004;-59
2022/05/29 00:55:30;;;;;;;;;;;;;;;27.33;34.63;93743.09;4975791;28;7073;-59
2022/05/29 00:58:03;;;;;;;;;;;;;;;27.33;34.21;93735.56;4989217;28;7531;-59
2022/05/29 01:00:32;;;;;;;;;;;;;;;27.31;34.79;93738.13;4992416;28;7475;-59
2022/05/29 01:03:01;;;;;;;;;;;;;;;27.30;34.46;93725.59;4993590;28;7613;-59
2022/05/29 01:05:33;;;;;;;;;;;;;;;27.29;34.78;93729.66;4990147;28;6996;-59
2022/05/29 01:08:06;;;;;;;;;;;;;;;27.29;34.61;93724.13;4980331;28;7195;-60
2022/05/29 01:10:49;;;;;;;;;;;;;;;27.28;34.70;93717.09;5008246;28;6976;-59
2022/05/29 01:13:21;;;;;;;;;;;;;;;27.28;34.76;93714.34;4989155;28;7245;-59
2022/05/29 01:16:04;;;;;;;;;;;;;;;27.27;35.03;93721.16;5013697;28;8820;-59
2022/05/29 01:18:56;;;;;;;;;;;;;;;27.27;34.36;93710.13;4983910;28;9055;-59
2022/05/29 01:21:59;;;;;;;;;;;;;;;27.27;34.67;93704.59;5001663;28;6990;-59
2022/05/29 01:25:11;;;;;;;;;;;;;;;27.27;34.28;93707.34;5002806;28;7191;-59
2022/05/29 01:28:05;;;;;;;;;;;;;;;27.26;34.44;93703.09;4975589;28;9954;-59
2022/05/29 01:30:46;;;;;;;;;;;;;;;27.24;34.83;93694.63;4982732;28;9018;-59
2022/05/29 01:33:18;;;;;;;;;;;;;;;27.23;34.46;93686.88;4984828;28;8894;-59
2022/05/29 01:36:10;;;;;;;;;;;;;;;27.23;35.02;93686.88;4997436;28;9790;-59
2022/05/29 01:39:00;;;;;;;;;;;;;;;27.21;35.03;93686.69;4983829;28;7230;-59
2022/05/29 01:41:52;;;;;;;;;;;;;;;27.21;35.04;93676.34;4989351;28;7238;-59
2022/05/29 01:44:25;;;;;;;;;;;;;;;27.20;34.63;93674.88;5009160;28;9060;-59
2022/05/29 01:47:19;;;;;;;;;;;;;;;27.20;34.90;93671.38;4973508;28;7172;-59
2022/05/29 01:49:51;;;;;;;;;;;;;;;27.19;35.43;93669.88;4977569;28;6998;-60
2022/05/29 01:52:17;;;;;;;;;;;;;;;27.20;35.15;93672.13;4998314;28;9892;-59
2022/05/29 01:54:57;;;;;;;;;;;;;;;27.18;34.63;93654.63;4974491;28;8933;-59
2022/05/29 01:57:28;;;;;;;;;;;;;;;27.18;35.15;93649.09;4979073;28;9489;-59
2022/05/29 02:00:01;;;;;;;;;;;;;;;27.16;35.15;93646.88;4999496;28;7165;-59
2022/05/29 02:02:36;;;;;;;;;;;;;;;27.18;34.71;93649.09;4976619;28;7078;-59
2022/05/29 02:05:09;;;;;;;;;;;;;;;27.16;35.23;93644.13;4982926;28;9038;-59
2022/05/29 02:07:50;;;;;;;;;;;;;;;27.15;34.94;93637.09;5017238;28;7236;-59
2022/05/29 02:10:51;;;;;;;;;;;;;;;27.16;34.55;93638.59;4988877;28;9435;-59
2022/05/29 02:13:26;;;;;;;;;;;;;;;27.16;35.36;93633.06;4984775;28;9256;-59
2022/05/29 02:16:08;;;;;;;;;;;;;;;27.16;34.69;93630.31;4967413;28;9080;-59
2022/05/29 02:19:03;;;;;;;;;;;;;;;27.16;34.62;93629.56;4981223;28;7276;-59
2022/05/29 02:21:44;;;;;;;;;;;;;;;27.14;35.16;93627.34;4969501;28;8097;-59
2022/05/29 02:24:17;;;;;;;;;;;;;;;27.15;34.86;93622.56;4966070;28;7286;-59
2022/05/29 02:27:10;;;;;;;;;;;;;;;27.12;34.72;93618.84;4979797;28;9024;-60
2022/05/29 02:30:04;;;;;;;;;;;;;;;27.13;35.39;93622.34;4972194;28;9079;-59
2022/05/29 02:32:51;;;;;;;;;;;;;;;27.12;35.29;93618.84;4981767;28;7357;-59
2022/05/29 02:35:32;;;;;;;;;;;;;;;27.12;34.94;93623.66;4967537;28;8774;-59
2022/05/29 02:38:17;;;;;;;;;;;;;;;27.10;34.89;93618.66;4970321;28;7269;-59
2022/05/29 02:41:00;;;;;;;;;;;;;;;27.11;35.14;93622.91;4962633;28;9570;-59
2022/05/29 02:43:32;;;;;;;;;;;;;;;27.10;35.14;93617.94;4983587;28;9107;-59
2022/05/29 02:46:21;;;;;;;;;;;;;;;27.10;34.87;93623.44;4958030;28;7183;-59
2022/05/29 02:48:59;;;;;;;;;;;;;;;27.08;34.87;93621.22;4988581;28;9094;-59
2022/05/29 02:51:51;;;;;;;;;;;;;;;27.08;34.51;93626.72;4979389;28;8640;-59
2022/05/29 02:54:25;;;;;;;;;;;;;;;27.07;34.89;93625.25;5005737;28;7345;-59
2022/05/29 02:57:01;;;;;;;;;;;;;;;27.04;35.31;93615.28;5004808;28;9586;-59
2022/05/29 02:59:39;;;;;;;;;;;;;;;27.06;35.27;93621.00;4977820;28;7239;-59
2022/05/29 03:02:31;;;;;;;;;;;;;;;27.06;34.54;93621.00;5002922;28;7232;-59
2022/05/29 03:05:23;;;;;;;;;;;;;;;27.05;35.16;93619.53;4978922;28;7305;-59
2022/05/29 03:08:20;;;;;;;;;;;;;;;27.05;35.42;93618.78;4985402;28;6911;-59
2022/05/29 03:11:22;;;;;;;;;;;;;;;27.04;35.37;93618.06;4984950;28;9068;-59
2022/05/29 03:13:55;;;;;;;;;;;;;;;27.03;34.53;93613.81;4968032;28;9579;-59
2022/05/29 03:16:51;;;;;;;;;;;;;;;27.03;35.13;93611.06;4978765;28;7051;-59
2022/05/29 03:19:38;;;;;;;;;;;;;;;27.02;34.82;93614.34;4980931;28;7182;-59
2022/05/29 03:22:12;;;;;;;;;;;;;;;27.03;34.75;93618.59;4983267;28;7230;-59
2022/05/29 03:24:52;;;;;;;;;;;;;;;27.03;35.24;93610.31;4994123;28;9052;-59
2022/05/29 03:27:31;;;;;;;;;;;;;;;27.00;34.64;93608.63;4987501;28;9745;-59
2022/05/29 03:30:22;;;;;;;;;;;;;;;27.02;34.78;93614.34;4973425;28;8829;-59
2022/05/29 03:32:54;;;;;;;;;;;;;;;27.01;35.44;93615.63;4981537;28;7405;-59
2022/05/29 03:35:30;;;;;;;;;;;;;;;27.00;34.69;93609.38;4989292;28;9069;-59
2022/05/29 03:37:59;;;;;;;;;;;;;;;26.97;34.61;93615.97;4993002;28;7367;-59
2022/05/29 03:40:32;;;;;;;;;;;;;;;26.97;35.39;93615.97;4989423;28;9402;-59
2022/05/29 03:42:58;;;;;;;;;;;;;;;26.96;34.59;93608.97;4996608;28;9072;-59
2022/05/29 03:45:29;;;;;;;;;;;;;;;26.95;35.44;93607.47;4996225;28;6930;-59
2022/05/29 03:48:30;;;;;;;;;;;;;;;26.97;35.17;93607.69;4991597;28;6997;-59
2022/05/29 03:50:56;;;;;;;;;;;;;;;26.97;35.36;93626.28;4933855;29;7250;-59
2022/05/29 03:53:23;;;;;;;;;;;;;;;26.94;35.36;93611.53;4928147;29;7527;-59
2022/05/29 03:56:03;;;;;;;;;;;;;;;26.95;34.86;93604.00;4934756;29;8744;-59
2022/05/29 03:58:29;;;;;;;;;;;;;;;26.94;35.22;93614.28;4946208;28;7545;-59
2022/05/29 04:00:56;;;;;;;;;;;;;;;26.93;34.89;93604.53;4952720;28;7502;-59
2022/05/29 04:03:22;;;;;;;;;;;;;;;26.93;34.67;93612.78;4944848;28;9098;-59
2022/05/29 04:05:48;;;;;;;;;;;;;;;26.95;34.62;93613.00;4932301;28;7322;-59
2022/05/29 04:13:54;;;;;;;;;;;;;;;26.93;34.57;93610.03;4951201;28;7173;-59
2022/05/29 04:16:21;;;;;;;;;;;;;;;26.93;34.79;93604.53;4948574;28;9064;-59
2022/05/29 04:19:06;;;;;;;;;;;;;;;26.92;35.13;93614.09;4953653;28;6939;-59
2022/05/29 04:21:32;;;;;;;;;;;;;;;26.92;34.60;93616.84;4941008;28;6983;-59
2022/05/29 04:24:20;;;;;;;;;;;;;;;26.93;34.38;93610.03;4947133;28;6992;-59
2022/05/29 04:26:57;;;;;;;;;;;;;;;26.92;35.30;93614.09;4968030;28;7224;-59
2022/05/29 04:29:28;;;;;;;;;;;;;;;26.92;34.80;93618.88;5008374;28;7295;-59
2022/05/29 04:34:57;;;;;;;;;;;;;;;26.92;34.90;93616.09;4993999;28;9017;-59
2022/05/29 04:37:26;;;;;;;;;;;;;;;26.92;35.26;93618.88;4982645;28;7278;-59
2022/05/29 04:39:55;;;;;;;;;;;;;;;26.91;35.12;93623.63;4999747;28;9043;-59
2022/05/29 04:42:35;;;;;;;;;;;;;;;26.89;35.38;93626.19;4980058;28;7263;-59
2022/05/29 04:45:08;;;;;;;;;;;;;;;26.90;34.81;93627.69;4977145;28;8065;-59
2022/05/29 04:47:48;;;;;;;;;;;;;;;26.89;34.66;93626.19;4987392;28;7467;-59
2022/05/29 04:50:20;;;;;;;;;;;;;;;26.89;34.58;93626.19;4996742;28;7358;-59
2022/05/29 04:52:52;;;;;;;;;;;;;;;26.89;34.60;93626.19;4998439;28;7072;-59
2022/05/29 04:55:18;;;;;;;;;;;;;;;26.87;34.84;93628.75;4994374;28;7140;-59
2022/05/29 04:57:45;;;;;;;;;;;;;;;26.85;34.46;93629.28;4996496;28;7143;-59
2022/05/29 05:00:15;;;;;;;;;;;;;;;26.85;35.06;93632.06;4984679;28;9350;-59
2022/05/29 05:02:43;;;;;;;;;;;;;;;26.84;34.48;93630.56;4999900;28;7101;-59
2022/05/29 05:05:11;;;;;;;;;;;;;;;26.84;34.97;93636.09;5006928;28;7387;-59
2022/05/29 05:07:41;;;;;;;;;;;;;;;26.84;35.04;93641.59;5003262;28;7050;-59
2022/05/29 05:10:32;;;;;;;;;;;;;;;26.84;34.87;93641.59;5001713;28;7059;-59
2022/05/29 05:13:00;;;;;;;;;;;;;;;26.85;34.39;93642.34;4990830;28;7433;-59
2022/05/29 05:15:29;;;;;;;;;;;;;;;26.83;34.40;93631.84;5017839;28;7446;-59
2022/05/29 05:17:55;;;;;;;;;;;;;;;26.82;34.31;93630.34;4977235;28;9511;-59
2022/05/29 05:20:23;;;;;;;;;;;;;;;26.82;34.45;93629.63;4988652;28;9060;-59
2022/05/29 05:22:53;;;;;;;;;;;;;;;26.81;33.84;93625.38;4988658;28;7013;-59
2022/05/29 05:25:20;;;;;;;;;;;;;;;26.81;34.34;93625.38;5011864;28;8998;-59
2022/05/29 05:27:46;;;;;;;;;;;;;;;26.78;34.06;93627.19;4985782;28;9106;-59
2022/05/29 05:30:29;;;;;;;;;;;;;;;26.80;33.90;93624.63;4985512;28;6982;-59
2022/05/29 05:33:09;;;;;;;;;;;;;;;26.78;34.64;93627.19;4982272;28;7281;-59
2022/05/29 05:35:34;;;;;;;;;;;;;;;26.78;34.42;93626.44;4992251;28;9097;-59
2022/05/29 05:38:00;;;;;;;;;;;;;;;26.77;34.02;93630.50;4993881;28;9069;-59
2022/05/29 05:40:29;;;;;;;;;;;;;;;26.77;34.17;93630.50;4977214;28;7270;-59
2022/05/29 05:43:01;;;;;;;;;;;;;;;26.80;34.49;93632.91;5012071;28;7029;-59
2022/05/29 05:45:40;;;;;;;;;;;;;;;26.79;34.09;93625.94;4987330;28;6979;-59
2022/05/29 05:48:09;;;;;;;;;;;;;;;26.78;34.04;93631.97;4999925;28;6970;-59
2022/05/29 05:50:38;;;;;;;;;;;;;;;26.76;33.92;93632.50;4982394;28;7556;-59
2022/05/29 05:53:07;;;;;;;;;;;;;;;26.76;34.47;93631.75;4978889;28;7341;-60
2022/05/29 05:55:36;;;;;;;;;;;;;;;26.75;34.28;93630.31;4984983;28;7239;-59
2022/05/29 05:58:09;;;;;;;;;;;;;;;26.74;34.22;93635.06;4989794;28;8615;-59
2022/05/29 06:00:37;;;;;;;;;;;;;;;26.75;34.20;93633.78;4987370;28;9150;-59
2022/05/29 06:03:16;;;;;;;;;;;;;;;26.74;34.43;93637.81;4982138;28;7253;-59
2022/05/29 06:05:54;;;;;;;;;;;;;;;26.73;33.90;93635.63;5015922;28;8711;-59
2022/05/29 06:08:31;;;;;;;;;;;;;;;26.75;34.11;93636.53;4985981;28;8624;-59
2022/05/29 06:11:04;;;;;;;;;;;;;;;26.73;34.07;93628.06;5012880;28;9505;-59
2022/05/29 06:13:33;;;;;;;;;;;;;;;26.75;34.49;93628.25;4989337;28;7399;-59
2022/05/29 06:16:04;;;;;;;;;;;;;;;26.75;33.80;93633.06;4985750;28;9183;-59
2022/05/29 06:18:30;;;;;;;;;;;;;;;26.75;34.20;93624.78;4984592;28;9375;-59
2022/05/29 06:21:26;;;;;;;;;;;;;;;26.75;33.73;93633.06;4989069;28;8750;-60
2022/05/29 06:24:05;;;;;;;;;;;;;;;26.76;34.49;93626.25;4953212;28;7009;-59
2022/05/29 06:26:33;;;;;;;;;;;;;;;26.73;33.83;93624.56;4950044;28;9427;-60
2022/05/29 06:28:59;;;;;;;;;;;;;;;26.74;33.50;93629.56;4950437;28;7164;-59
2022/05/29 06:31:36;;;;;;;;;;;;;;;26.74;34.04;93624.03;4957197;28;8774;-59
2022/05/29 06:34:02;;;;;;;;;;;;;;;26.75;34.09;93624.78;4953482;28;7407;-59
2022/05/29 06:36:28;;;;;;;;;;;;;;;26.75;34.20;93631.00;4946495;28;7671;-59
2022/05/29 06:38:57;;;;;;;;;;;;;;;26.75;33.81;93622.75;4950199;28;7248;-59
2022/05/29 06:41:25;;;;;;;;;;;;;;;26.76;33.87;93621.47;4960882;28;8838;-59
2022/05/29 06:43:53;;;;;;;;;;;;;;;26.76;33.64;93629.75;4982411;28;7272;-59
2022/05/29 06:46:25;;;;;;;;;;;;;;;26.73;34.28;93621.81;4953485;28;7114;-60
2022/05/29 06:49:06;;;;;;;;;;;;;;;26.73;33.70;93625.31;4984449;28;7991;-59
2022/05/29 06:51:34;;;;;;;;;;;;;;;26.73;34.16;93628.06;4956461;28;7984;-59
2022/05/29 06:54:04;;;;;;;;;;;;;;;26.73;33.77;93627.34;4951783;28;7259;-59
2022/05/29 06:56:32;;;;;;;;;;;;;;;26.70;34.08;93626.34;4969921;28;9129;-60
2022/05/29 06:59:03;;;;;;;;;;;;;;;26.71;34.41;93622.31;4978154;28;7251;-59
2022/05/29 07:07:14;;;;;;;;;;;;;;;26.74;34.49;93632.31;4986814;28;9550;-59
2022/05/29 07:09:40;;;;;;;;;;;;;;;26.72;34.48;93636.84;5004388;28;9276;-60
2022/05/29 07:12:26;;;;;;;;;;;;;;;26.70;34.11;93636.66;4973046;28;8161;-60
2022/05/29 07:15:03;;;;;;;;;;;;;;;26.73;33.98;93643.88;4983623;28;8774;-59
2022/05/29 07:17:29;;;;;;;;;;;;;;;26.71;33.91;93644.38;4987192;28;9092;-60
2022/05/29 07:19:58;;;;;;;;;;;;;;;26.74;34.08;93639.84;4998935;28;7196;-60
2022/05/29 07:22:30;;;;;;;;;;;;;;;26.75;33.77;93639.28;4992060;28;9230;-60
2022/05/29 07:24:58;;;;;;;;;;;;;;;26.75;33.95;93649.63;5004690;28;7386;-59
2022/05/29 07:27:24;;;;;;;;;;;;;;;26.76;34.48;93649.06;4982035;28;7289;-59
2022/05/29 07:29:53;;;;;;;;;;;;;;;26.73;34.36;93646.66;5016423;28;7688;-60
2022/05/29 07:32:42;;;;;;;;;;;;;;;26.72;34.64;93651.38;4991303;28;7207;-59
2022/05/29 07:35:09;;;;;;;;;;;;;;;26.74;34.46;93653.63;4987487;28;7207;-60
2022/05/29 07:37:35;;;;;;;;;;;;;;;26.73;34.28;93652.88;4990012;28;9132;-59
2022/05/29 07:40:05;;;;;;;;;;;;;;;26.72;34.82;93662.44;5002972;28;9147;-60
2022/05/29 07:45:35;;;;;;;;;;;;;;;26.73;33.89;93649.41;4986039;28;6995;-59
2022/05/29 07:48:14;;;;;;;;;;;;;;;26.72;34.80;93662.44;4991942;28;9333;-59
2022/05/29 07:50:54;;;;;;;;;;;;;;;26.70;34.65;93655.97;4989533;28;7311;-60
2022/05/29 07:53:33;;;;;;;;;;;;;;;26.71;34.69;93657.44;4986330;28;7505;-60
2022/05/29 07:56:07;;;;;;;;;;;;;;;26.69;34.16;93657.97;5002995;28;7309;-60
2022/05/29 07:59:06;;;;;;;;;;;;;;;26.68;35.03;93655.75;4964391;28;9566;-59
2022/05/29 08:01:44;;;;;;;;;;;;;;;26.68;34.93;93661.28;4972084;28;7227;-60
2022/05/29 08:04:10;;;;;;;;;;;;;;;26.68;34.26;93653.75;4967819;28;8722;-60
2022/05/29 08:06:41;;;;;;;;;;;;;;;26.67;34.34;93657.03;4979371;28;7246;-59
2022/05/29 08:09:12;;;;;;;;;;;;;;;26.65;34.72;93657.56;4964638;28;7096;-60
2022/05/29 08:11:38;;;;;;;;;;;;;;;26.65;34.18;93654.06;4974722;28;9021;-59
2022/05/29 08:14:04;;;;;;;;;;;;;;;26.67;34.00;93657.03;4978558;28;8082;-60
2022/05/29 08:17:02;;;;;;;;;;;;;;;26.68;33.95;93655.75;4979547;28;7290;-60
2022/05/29 08:19:36;;;;;;;;;;;;;;;26.70;33.83;93664.22;4895471;29;7190;-60
2022/05/29 08:22:10;;;;;;;;;;;;;;;26.66;34.17;93655.56;4893133;29;7187;-59
2022/05/29 08:30:46;;;;;;;;;;;;;;;26.61;34.08;93648.88;4887608;29;9421;-59
2022/05/29 08:33:24;;;;;;;;;;;;;;;26.60;34.15;93652.91;4885765;29;9269;-59
2022/05/29 08:35:55;;;;;;;;;;;;;;;26.63;34.45;93645.56;4889978;29;8833;-60
2022/05/29 08:38:21;;;;;;;;;;;;;;;26.65;34.33;93651.28;4859975;29;7151;-59
2022/05/29 08:40:57;;;;;;;;;;;;;;;26.66;33.73;93655.56;4869824;29;7105;-60
2022/05/29 08:43:40;;;;;;;;;;;;;;;26.63;33.83;93651.09;4868132;29;9054;-60
2022/05/29 08:46:19;;;;;;;;;;;;;;;26.60;33.71;93652.19;4871208;29;7270;-60
2022/05/29 08:49:00;;;;;;;;;;;;;;;26.61;34.03;93650.88;4888326;29;9114;-60
2022/05/29 08:51:45;;;;;;;;;;;;;;;26.60;35.22;93644.63;4877966;29;7222;-60
2022/05/29 08:54:24;;;;;;;;;;;;;;;26.60;34.34;93641.88;4875687;29;9378;-60
2022/05/29 08:57:40;;;;;;;;;;;;;;;26.61;34.76;93642.63;4925423;29;9138;-60
2022/05/29 09:00:52;;;;;;;;;;;;;;;26.62;35.38;93642.06;4891672;29;7080;-60
2022/05/29 09:03:49;;;;;;;;;;;;;;;26.62;35.44;93641.34;4894038;29;7299;-60
2022/05/29 09:07:00;;;;;;;;;;;;;;;26.63;35.12;93643.56;4923305;28;6998;-60
2022/05/29 09:09:51;;;;;;;;;;;;;;;26.64;35.12;93639.50;4892821;29;7423;-60
2022/05/29 09:12:31;;;;;;;;;;;;;;;26.66;35.27;93636.25;4892237;29;7673;-59
2022/05/29 09:15:23;;;;;;;;;;;;;;;26.67;34.65;93632.94;4874080;29;7327;-59
2022/05/29 09:17:53;;;;;;;;;;;;;;;26.64;35.07;93636.75;4883238;29;7071;-59
2022/05/29 09:20:21;;;;;;;;;;;;;;;26.63;34.99;93627.00;4886118;29;7235;-59
2022/05/29 09:22:47;;;;;;;;;;;;;;;26.65;34.64;93629.22;4870423;29;7309;-59
2022/05/29 09:25:30;;;;;;;;;;;;;;;26.65;34.86;93624.47;4884350;29;7294;-60
2022/05/29 09:28:01;;;;;;;;;;;;;;;26.66;35.10;93622.44;4884808;29;7328;-60
2022/05/29 09:30:29;;;;;;;;;;;;;;;26.66;34.50;93625.22;4869158;29;7265;-59
2022/05/29 09:33:15;;;;;;;;;;;;;;;26.65;35.57;93618.94;4882189;29;9010;-60
2022/05/29 09:36:16;;;;;;;;;;;;;;;26.65;35.37;93620.94;4880805;29;7871;-61
2022/05/29 09:38:56;;;;;;;;;;;;;;;26.66;34.93;93620.44;4890890;29;7244;-60
2022/05/29 09:41:45;;;;;;;;;;;;;;;26.67;35.23;93618.41;4923798;28;7762;-60
2022/05/29 09:44:18;;;;;;;;;;;;;;;26.67;34.73;93610.13;4928233;28;9121;-59
2022/05/29 09:46:47;;;;;;;;;;;;;;;26.65;35.76;93613.44;4967475;28;7121;-60
2022/05/29 09:49:41;;;;;;;;;;;;;;;26.65;35.02;93618.19;4986977;28;7058;-59
2022/05/29 09:52:07;;;;;;;;;;;;;;;26.65;34.96;93618.94;5010145;28;7420;-60
2022/05/29 09:54:38;;;;;;;;;;;;;;;26.67;35.72;93612.88;4988855;28;7266;-60
2022/05/29 09:57:08;;;;;;;;;;;;;;;26.67;35.28;93615.63;5002983;28;10061;-60
2022/05/29 09:59:51;;;;;;;;;;;;;;;26.67;35.97;93610.13;4980770;28;9132;-60
2022/05/29 10:02:51;;;;;;;;;;;;;;;26.66;34.92;93614.91;4988029;28;7117;-60
2022/05/29 10:05:40;;;;;;;;;;;;;;;26.67;35.04;93615.63;4974532;28;8844;-60
2022/05/29 10:08:49;;;;;;;;;;;;;;;26.66;35.53;93619.69;4979147;28;7010;-60
2022/05/29 10:11:33;;;;;;;;;;;;;;;26.67;35.49;93621.16;4964284;28;9539;-60
2022/05/29 10:17:29;;;;;;;;;;;;;;;26.68;35.40;93617.13;4983135;28;6997;-60
2022/05/29 10:19:58;;;;;;;;;;;;;;;26.67;35.10;93610.88;4986518;28;7641;-60
2022/05/29 10:22:38;;;;;;;;;;;;;;;26.68;34.97;93611.63;4960409;28;7282;-60
2022/05/29 10:25:28;;;;;;;;;;;;;;;26.66;35.06;93608.66;4973308;28;8684;-60
2022/05/29 10:28:00;;;;;;;;;;;;;;;26.67;35.66;93615.63;4978799;28;9415;-60
2022/05/29 10:31:00;;;;;;;;;;;;;;;26.69;35.65;93615.84;4974003;28;8802;-60
2022/05/29 10:33:35;;;;;;;;;;;;;;;26.70;35.34;93617.34;4895444;29;7965;-59
2022/05/29 10:36:09;;;;;;;;;;;;;;;26.73;35.59;93616.31;4892416;29;7255;-60
2022/05/29 10:38:38;;;;;;;;;;;;;;;26.71;35.92;93608.50;4887505;29;9184;-60
2022/05/29 10:41:10;;;;;;;;;;;;;;;26.72;36.19;93614.78;4896869;29;7031;-60
2022/05/29 10:43:48;;;;;;;;;;;;;;;26.73;36.47;93608.03;4896069;29;7907;-59
2022/05/29 10:46:44;;;;;;;;;;;;;;;26.75;35.62;93613.75;4894767;29;7360;-60
2022/05/29 10:49:39;;;;;;;;;;;;;;;26.77;35.83;93603.63;4910705;29;7272;-60
2022/05/29 10:52:38;;;;;;;;;;;;;;;26.79;35.75;93594.84;4888560;29;7144;-60
2022/05/29 10:55:50;;;;;;;;;;;;;;;26.79;35.94;93605.88;4918295;29;9615;-60
2022/05/29 10:58:53;;;;;;;;;;;;;;;26.76;36.28;93601.41;4919055;29;7654;-60
2022/05/29 11:04:49;;;;;;;;;;;;;;;26.80;35.86;93597.06;4910041;29;7290;-60
2022/05/29 11:07:42;;;;;;;;;;;;;;;26.79;36.23;93592.81;4920332;29;7101;-60
2022/05/29 11:10:46;;;;;;;;;;;;;;;26.79;36.77;93581.03;4982752;28;7262;-60
2022/05/29 11:13:43;;;;;;;;;;;;;;;26.74;36.34;93590.94;5011702;28;7004;-61
2022/05/29 11:16:16;;;;;;;;;;;;;;;26.92;36.06;93592.00;5008358;28;8316;-60
2022/05/29 11:19:01;;;;;;;;;;;;;;;27.18;35.38;93589.09;5012102;28;9427;-60
2022/05/29 11:21:46;;;;;;;;;;;;;;;27.27;35.13;93588.63;5005459;28;8197;-60
2022/05/29 11:25:06;;;;;;;;;;;;;;;27.20;33.92;93591.31;4989661;28;7365;-60
2022/05/29 11:28:18;;;;;;;;;;;;;;;27.11;32.94;93587.03;4995048;28;9193;-60
2022/05/29 11:31:22;;;;;;;;;;;;;;;27.05;33.32;93585.69;4989386;28;7076;-60
2022/05/29 11:34:30;;;;;;;;;;;;;;;27.06;33.76;93585.13;4995304;28;7255;-59
2022/05/29 11:37:22;;;;;;;;;;;;;;;27.07;33.97;93574.84;4948202;28;7294;-59
2022/05/29 11:39:57;;;;;;;;;;;;;;;27.06;33.17;93574.09;4946241;28;8021;-59
2022/05/29 11:42:40;;;;;;;;;;;;;;;27.06;33.23;93579.59;4950166;28;8793;-59
2022/05/29 11:45:22;;;;;;;;;;;;;;;27.06;33.68;93573.34;4949812;28;7435;-59
2022/05/29 11:51:08;;;;;;;;;;;;;;;27.02;33.39;93568.16;4949356;28;9049;-59
2022/05/29 11:54:03;;;;;;;;;;;;;;;27.02;33.29;93573.69;4949916;28;7248;-60
2022/05/29 11:57:08;;;;;;;;;;;;;;;27.04;33.74;93570.38;4944134;28;7129;-60
2022/05/29 11:59:43;;;;;;;;;;;;;;;27.04;33.44;93576.66;4942285;28;7354;-60
2022/05/29 12:02:18;;;;;;;;;;;;;;;27.04;33.08;93582.16;4946133;28;9582;-60
2022/05/29 12:05:24;;;;;;;;;;;;;;;27.02;33.15;93581.97;4958763;28;9843;-60
2022/05/29 12:08:16;;;;;;;;;;;;;;;27.00;33.96;93590.06;4938679;28;9137;-60
2022/05/29 12:11:10;;;;;;;;;;;;;;;26.99;33.29;93591.31;4931642;29;9215;-60
2022/05/29 12:14:08;;;;;;;;;;;;;;;26.99;34.01;93593.34;4955323;28;7102;-60
2022/05/29 12:16:44;;;;;;;;;;;;;;;27.00;33.84;93597.59;4955534;28;7221;-60
2022/05/29 12:19:27;;;;;;;;;;;;;;;27.00;33.48;93597.59;4964607;28;9075;-60
2022/05/29 12:22:30;;;;;;;;;;;;;;;27.01;33.36;93607.34;4931095;29;7232;-60
2022/05/29 12:25:31;;;;;;;;;;;;;;;27.01;33.61;93599.81;4929695;29;8888;-59
2022/05/29 12:28:41;;;;;;;;;;;;;;;27.01;33.38;93601.84;4952305;28;7278;-59
2022/05/29 12:31:42;;;;;;;;;;;;;;;27.02;33.42;93595.78;4940563;28;8162;-60
2022/05/29 12:34:31;;;;;;;;;;;;;;;27.01;33.75;93594.31;4928717;28;9594;-59
2022/05/29 12:37:21;;;;;;;;;;;;;;;27.00;34.13;93598.34;4944114;28;7249;-60
2022/05/29 12:39:47;;;;;;;;;;;;;;;27.02;33.76;93595.03;4935367;28;7256;-60
2022/05/29 12:42:49;;;;;;;;;;;;;;;27.00;33.68;93592.81;4918551;29;6977;-60
2022/05/29 12:45:40;;;;;;;;;;;;;;;27.03;33.99;93594.50;4889877;29;9112;-60
2022/05/29 12:48:55;;;;;;;;;;;;;;;27.03;33.45;93580.69;4895725;29;9105;-60
2022/05/29 12:51:37;;;;;;;;;;;;;;;27.01;34.38;93586.03;4910920;29;7285;-60
2022/05/29 12:54:31;;;;;;;;;;;;;;;27.03;34.21;93593.75;4931053;29;8955;-60
2022/05/29 12:57:29;;;;;;;;;;;;;;;27.02;34.62;93595.78;4948842;28;7274;-60
2022/05/29 13:00:29;;;;;;;;;;;;;;;27.02;34.74;93598.53;4934021;29;9107;-60
2022/05/29 13:03:31;;;;;;;;;;;;;;;27.02;34.47;93601.28;4949117;28;9125;-60
2022/05/29 13:06:40;;;;;;;;;;;;;;;27.00;34.86;93600.34;4935096;28;8759;-60
2022/05/29 13:09:50;;;;;;;;;;;;;;;26.99;34.81;93602.34;4960899;28;9372;-60
2022/05/29 13:12:42;;;;;;;;;;;;;;;27.01;34.21;93604.59;4990071;28;9421;-60
2022/05/29 13:15:23;;;;;;;;;;;;;;;26.99;34.10;93610.63;4980830;28;9497;-60
2022/05/29 13:21:10;;;;;;;;;;;;;;;26.96;34.34;93603.44;4981176;28;9538;-60
2022/05/29 13:23:51;;;;;;;;;;;;;;;26.99;34.39;93613.41;4995215;28;9083;-60
2022/05/29 13:26:31;;;;;;;;;;;;;;;26.99;34.58;93602.34;5001316;28;7415;-60
2022/05/29 13:29:12;;;;;;;;;;;;;;;26.99;34.70;93607.88;5002668;28;6998;-60
2022/05/29 13:32:13;;;;;;;;;;;;;;;26.98;34.50;93611.19;4988407;28;7238;-60
2022/05/29 13:34:43;;;;;;;;;;;;;;;26.98;34.22;93611.19;4982024;28;7246;-60
2022/05/29 13:37:32;;;;;;;;;;;;;;;26.94;34.16;93594.97;4986569;28;7006;-60
2022/05/29 13:40:21;;;;;;;;;;;;;;;26.95;34.74;93596.44;4961920;28;8768;-60
2022/05/29 13:42:53;;;;;;;;;;;;;;;26.95;34.39;93596.44;4945767;28;7310;-60
2022/05/29 13:45:19;;;;;;;;;;;;;;;26.97;34.79;93593.16;4927617;28;7204;-60
2022/05/29 13:48:14;;;;;;;;;;;;;;;26.97;34.63;93598.69;4941248;28;9337;-60
2022/05/29 13:50:43;;;;;;;;;;;;;;;26.99;34.49;93591.31;4938185;28;9210;-60
2022/05/29 13:53:28;;;;;;;;;;;;;;;27.02;34.28;93595.78;4947769;28;7315;-60
2022/05/29 13:56:03;;;;;;;;;;;;;;;27.00;35.32;93592.06;4956869;28;7180;-60
2022/05/29 14:05:07;;;;;;;;;;;;;;;27.01;35.49;93594.31;4945433;28;8634;-60
2022/05/29 14:07:34;;;;;;;;;;;;;;;27.01;35.25;93596.31;4949986;28;9072;-60
2022/05/29 14:10:22;;;;;;;;;;;;;;;26.97;34.86;93604.91;4936286;28;7202;-60
2022/05/29 14:13:02;;;;;;;;;;;;;;;27.00;34.94;93609.38;4946690;28;9006;-60
2022/05/29 14:15:37;;;;;;;;;;;;;;;26.98;34.99;93617.44;4927949;28;7239;-60
2022/05/29 14:18:31;;;;;;;;;;;;;;;26.97;35.26;93615.25;4977911;28;7473;-61
2022/05/29 14:20:59;;;;;;;;;;;;;;;26.97;35.12;93615.97;4977619;28;7068;-60
2022/05/29 14:26:56;;;;;;;;;;;;;;;26.93;34.67;93610.03;4984266;28;7145;-60
2022/05/29 14:29:45;;;;;;;;;;;;;;;26.93;35.48;93604.53;4993389;28;7370;-60
2022/05/29 14:32:43;;;;;;;;;;;;;;;26.92;34.61;93603.78;5008912;28;7283;-60
2022/05/29 14:35:16;;;;;;;;;;;;;;;26.92;35.16;93596.78;4995631;28;7541;-59
2022/05/29 14:38:13;;;;;;;;;;;;;;;26.93;35.33;93601.75;5014568;28;9232;-59
2022/05/29 14:40:53;;;;;;;;;;;;;;;26.88;35.40;93597.13;5012766;28;7287;-60
2022/05/29 14:43:25;;;;;;;;;;;;;;;26.85;34.57;93598.19;4990076;28;7332;-62
2022/05/29 14:46:16;;;;;;;;;;;;;;;26.88;34.48;93588.84;5016042;28;9033;-59
2022/05/29 14:48:59;;;;;;;;;;;;;;;26.94;34.37;93594.97;4990921;28;7342;-59
2022/05/29 14:51:54;;;;;;;;;;;;;;;26.95;35.17;93585.41;5020387;28;7375;-59